Holcut, MS

4:15 AM CST on December 06, 2016 (GMT -0600)
Midway Community | | Change Station

Elev 545 ft 34.72 °N, 88.22 °W | Updated 30 seconds ago

Light Rain
Light Rain
57.2 °F
Feels Like 57.2 °F
N
0.0
Wind Variable Wind from South
Gusts 0.0 mph

Today
High -- | Low -- °F
--% Chance of Precip.
Yesterday
High -- | Low -- °F
Precip. -- in
Pressure 29.66 in
Visibility 6.0 miles
Clouds Mostly Cloudy 300 ft
Overcast 1000 ft
Dew Point 54 °F
Humidity 88%
Rainfall 0.63 in
Snow Depth Not available.
6:46 AM 4:42 PM
Waxing Crescent, 40% visible
METAR KCRX 060735Z AUTO 00000G10KT 6SM -RA BKN003 OVC010 10/09 A2966 RMK AO2 LTG DSNT E AND SE AND W
Pressure 29.66 in
Visibility 6.0 miles
Clouds Mostly Cloudy 300 ft
Overcast 1000 ft
Dew Point 54 °F
Humidity 88%
Rainfall 0.63 in
Snow Depth Not available.
6:46 AM 4:42 PM
Waxing Crescent, 40% visible
METAR KCRX 060735Z AUTO 00000G10KT 6SM -RA BKN003 OVC010 10/09 A2966 RMK AO2 LTG DSNT E AND SE AND W

10-Day Weather Forecast

Almanac

Astronomy

Dec. 06, 2016 Rise Set
Actual Time
Civil Twilight
Nautical Twilight
Astronomical Twilight
Moon
Length of Visible Light
Length of Day
Tomorrow will be .
, % of the Moon is Illuminated

Today's Extremes

State Highs State Lows

Community

WunderPhotos

Upload Photos

1,955,935 photos uploaded!

WunderBlog® & News

Nearby

Air Quality

  Air Quality AQ Index Pollutant
Not available.

Snow Depth

Station Depth Elevation

Earthquake Activity

City Distance Mag. Time & Date
Minimum magnitude displayed is 2.5.

Coastal Water Temperatures

Place Temperature

Stations

Nearby Weather Stations

Station Location Temp. Windchill Dew Point Humidity Wind Precip. Elev Updated Type
                   

Watches & Warnings

There are currently no watches in effect.